Elm Grove, LA

7:13 AM CST on December 29, 2014 (GMT -0600)
Barksdale Air Force Base | Change Station
CLOSE
Current Station
Airport
Location: Barksdale AFB,
Elevation: 167 ft
Nearby Weather Stations

Elev 167 ft 32.50 °N, 93.66 °W | Updated 5 minutes ago

Overcast
Overcast
41 °F
Feels Like 38 °F
N
5
Wind Variable Wind from NE

Today
High -- | Low -- °F
--% Chance of Precip.
Yesterday
High -- | Low -- °F
Precip. -- in
7:14 AM 5:17 PM
First Quarter, 59% visible
Pressure 30.17 in
Visibility 10.0 miles
Clouds Overcast 600 ft
Windchill 38 °F
Dew Point 41 °F
Humidity 100%
Rainfall 0.00 in
Snow Depth Not available.
UV 0 out of 12
Pollen .50 out of 12
Air Quality Not available.
Flu Activity Not available.
SPECI KBAD 291308Z AUTO 05004KT 10SM OVC006 05/05 A3017 RMK AO2 VISNO RWY33 CHINO RWY33 $

More Conditions Fewer Conditions

Pressure 30.17 in
Visibility 10.0 miles
Clouds Overcast 600 ft
Windchill 38 °F
Dew Point 41 °F
Humidity 100%
Rainfall 0.00 in
Snow Depth Not available.
UV 0 out of 12
Pollen .50 out of 12
Air Quality Not available.
Flu Activity Not available.
SPECI KBAD 291308Z AUTO 05004KT 10SM OVC006 05/05 A3017 RMK AO2 VISNO RWY33 CHINO RWY33 $

More Conditions Fewer Conditions

Nowcast | as of 5:15 am CST on December 29, 2014

Light fog will continue to affect south Arkansas and much of north Louisiana...but may be patchy dense in a few spots with visibilities down to one mile or less at times. Motorists are urged to use caution as conditions may vary into the morning commute.

×

10-Day Weather Forecast

Almanac

Astronomy

Dec. 29, 2014 Rise Set
Actual Time
Civil Twilight
Nautical Twilight
Astronomical Twilight
Moon
Length of Visible Light
Length of Day
Tomorrow will be .
, % of the Moon is Illuminated

Today's Extremes

State Highs State Lows

Community

WunderPhotos

Upload Photos

1,781,577 photos uploaded!

WunderBlogs® & News

Nearby

Air Quality

  Air Quality AQ Index Pollutant
Not available.

Snow Depth

Station Depth Elevation

Earthquake Activity

City Distance Mag. Time & Date
Minimum magnitude displayed is 2.5.

Coastal Water Temperatures

Place Temperature

Nearby Weather Stations